»·PEaware :: N153MS KSBA-KMYF

N153MS :: KSBA-KMYF

FLIGHT INFORMATION

Flight Status: Arrived
Operator: Privately registered:
United States
More flights under this callsign
Pilot: Shane N. (25833)
Aircraft: MOONEY M-20K/M ENCORE BRAVO
(M20T)
More flights by this aircraft type
Origin: KSBA Santa Barbara Mun
United States
Destination: KMYF Montgomery
United States
More flights between these airports :: More routes between these airports
Route: +HENER V186 DARTS V597 MZB
File this flight plan on PilotEdge
Remarks: TEC SBAP27
Altitude:
(Current/Filed)
9,000ft
Speed:
(Current/Filed)
180kts
Departed: 19-Oct-19 06:38 PM
Arrived: 19-Oct-19 07:52 PM
Distance/Time
Traveled:
35nm/1:14
Distance/Time
To Go:
Arrived

Flight Plot

Page will automatically refresh every two minutes.


Map Options




Map Legend


Flown Route
Filed Route
Departure Airport
Arrival Airport
Navaid (VOR, NDB)
Fix

Horizontal Profiles

Position Reports

Time Latitude Longitude Heading Altitude Ground
Speed
19-Oct-19 18:25 34.432363 -119.836030 67 16ft 0kts
19-Oct-19 18:26 34.432363 -119.836030 67 16ft 0kts
19-Oct-19 18:27 34.432363 -119.836030 67 16ft 0kts
19-Oct-19 18:28 34.432363 -119.836030 67 16ft 0kts
19-Oct-19 18:29 34.432363 -119.836030 67 16ft 0kts
19-Oct-19 18:30 34.432363 -119.836030 67 16ft 0kts
19-Oct-19 18:31 34.432363 -119.836030 67 16ft 0kts
19-Oct-19 18:32 34.432363 -119.836030 67 16ft 0kts
19-Oct-19 18:33 34.430633 -119.835363 177 14ft 10kts
19-Oct-19 18:34 34.428741 -119.834996 174 13ft 0kts
19-Oct-19 18:35 34.428741 -119.834996 174 13ft 0kts
19-Oct-19 18:36 34.427863 -119.835707 267 12ft 1kts
19-Oct-19 18:37 34.426654 -119.861243 267 529ft 105kts
19-Oct-19 18:38 34.424249 -119.900140 267 1379ft 117kts
19-Oct-19 18:39 34.421603 -119.939852 267 2311ft 117kts
19-Oct-19 18:40 34.397144 -119.952225 151 3197ft 140kts
19-Oct-19 18:41 34.362780 -119.928911 151 4072ft 142kts
19-Oct-19 18:42 34.327754 -119.904888 151 4933ft 145kts
19-Oct-19 18:43 34.330196 -119.869758 20 5762ft 131kts
19-Oct-19 18:44 34.346299 -119.832682 89 6585ft 150kts
19-Oct-19 18:45 34.343919 -119.781627 86 7323ft 151kts
19-Oct-19 18:46 34.342630 -119.729444 85 8660ft 156kts
19-Oct-19 18:47 34.341218 -119.667585 87 9004ft 212kts
19-Oct-19 18:48 34.339436 -119.592843 88 9004ft 223kts
19-Oct-19 18:49 34.337759 -119.518539 87 9671ft 189kts
19-Oct-19 18:50 34.336667 -119.460580 85 10993ft 181kts
19-Oct-19 18:51 34.335010 -119.391199 87 11010ft 220kts
19-Oct-19 18:52 34.333254 -119.319676 88 11007ft 227kts
19-Oct-19 18:53 34.331380 -119.242533 88 11008ft 228kts
19-Oct-19 18:54 34.335679 -119.166265 81 11008ft 228kts
19-Oct-19 18:55 34.341337 -119.089799 81 11008ft 226kts
19-Oct-19 18:56 34.346887 -119.014703 81 11009ft 221kts
19-Oct-19 18:57 34.352345 -118.940334 81 11009ft 220kts
19-Oct-19 18:58 34.350160 -118.867006 107 10990ft 222kts
19-Oct-19 18:59 34.327961 -118.797292 111 10992ft 221kts
19-Oct-19 19:00 34.305058 -118.729891 110 10992ft 221kts
19-Oct-19 19:01 34.281175 -118.659974 110 10993ft 228kts
19-Oct-19 19:02 34.256781 -118.588813 109 10993ft 231kts
19-Oct-19 19:03 34.232229 -118.517285 110 11003ft 235kts
19-Oct-19 19:04 34.208646 -118.442839 107 11004ft 236kts
19-Oct-19 19:05 34.186273 -118.369141 107 11004ft 235kts
19-Oct-19 19:06 34.165554 -118.301000 108 10999ft 234kts
19-Oct-19 19:07 34.119598 -118.249920 155 10997ft 231kts
19-Oct-19 19:08 34.062106 -118.215381 158 10996ft 230kts
19-Oct-19 19:09 34.004710 -118.182180 158 10995ft 229kts
19-Oct-19 19:10 34.005525 -118.128888 359 10989ft 198kts
19-Oct-19 19:11 34.017228 -118.170455 216 10991ft 203kts
19-Oct-19 19:12 33.958594 -118.150549 160 10994ft 227kts
19-Oct-19 19:13 33.906755 -118.122322 160 10993ft 227kts
19-Oct-19 19:14 33.851136 -118.091893 160 10993ft 226kts
19-Oct-19 19:16 33.793663 -118.060466 158 10995ft 226kts
19-Oct-19 19:17 33.745998 -118.010422 138 10999ft 230kts
19-Oct-19 19:18 33.700605 -117.956989 138 10983ft 228kts
19-Oct-19 19:19 33.655494 -117.903739 138 10981ft 227kts
19-Oct-19 19:20 33.610735 -117.850972 138 10982ft 228kts
19-Oct-19 19:21 33.565007 -117.797209 138 10561ft 232kts
19-Oct-19 19:22 33.521673 -117.746274 139 9867ft 214kts
19-Oct-19 19:23 33.479679 -117.696985 138 9179ft 211kts
19-Oct-19 19:24 33.440644 -117.651205 137 8996ft 195kts
19-Oct-19 19:25 33.402445 -117.606458 136 9002ft 198kts
19-Oct-19 19:26 33.362325 -117.559576 137 9001ft 220kts
19-Oct-19 19:27 33.317878 -117.507758 137 8999ft 224kts
19-Oct-19 19:28 33.273367 -117.455901 138 8996ft 217kts
19-Oct-19 19:29 33.228345 -117.413578 161 8896ft 204kts
19-Oct-19 19:30 33.173185 -117.389342 165 8127ft 215kts
19-Oct-19 19:31 33.116851 -117.365643 164 7347ft 213kts
19-Oct-19 19:32 33.062212 -117.342693 164 6560ft 207kts
19-Oct-19 19:33 33.008320 -117.320079 163 5753ft 204kts
19-Oct-19 19:34 32.955127 -117.297778 163 5012ft 199kts
19-Oct-19 19:34 32.913775 -117.280429 163 4993ft 181kts
19-Oct-19 19:36 32.860917 -117.258259 163 4993ft 176kts
19-Oct-19 19:37 32.814522 -117.238925 163 4982ft 176kts
19-Oct-19 19:37 32.793343 -117.204080 78 4948ft 179kts
19-Oct-19 19:38 32.805068 -117.147896 100 4910ft 181kts
19-Oct-19 19:40 32.792657 -117.079697 101 4903ft 180kts
19-Oct-19 19:40 32.784137 -117.031679 87 4898ft 178kts
19-Oct-19 19:41 32.797485 -116.976126 70 4877ft 174kts
19-Oct-19 19:42 32.810077 -116.920866 70 4878ft 172kts
19-Oct-19 19:43 32.795911 -116.870290 131 4518ft 190kts
19-Oct-19 19:44 32.749149 -116.865070 208 4184ft 167kts
19-Oct-19 19:45 32.726532 -116.902303 277 4187ft 144kts
19-Oct-19 19:46 32.740833 -116.950603 298 3541ft 153kts
19-Oct-19 19:47 32.759795 -116.996721 295 2925ft 159kts
19-Oct-19 19:48 32.779048 -117.045422 295 2071ft 166kts
19-Oct-19 19:49 32.797918 -117.093279 294 1196ft 119kts
19-Oct-19 19:50 32.807478 -117.117962 291 709ft 69kts
19-Oct-19 19:51 32.815382 -117.137804 293 423ft 31kts
19-Oct-19 19:52 32.815857 -117.140658 243 421ft 0kts
19-Oct-19 19:53 32.815857 -117.140658 243 421ft 0kts
19-Oct-19 19:54 32.815857 -117.140658 243 421ft 0kts
19-Oct-19 19:55 34.198999 -119.197763 269 46ft 0kts
19-Oct-19 19:56 34.198999 -119.197763 269 46ft 0kts
19-Oct-19 19:57 34.198999 -119.197763 269 46ft 0kts

Navigation Log

Ident Type
Flight plan parsing failed, navigation log unavailable